Time;durP1;ratioP1;P1;durP2;ratioP2;P2;SDS_P1;SDS_P2;PMS_P1;PMS_P2;Temp;Humidity;BMP_temperature;BMP_pressure;BME280_temperature;BME280_humidity;BME280_pressure;Samples;Min_cycle;Max_cycle;Signal;HPM_P1;HPM_P2
2022/08/08 00:00:12;;;;;;;5.38;2.08;;;;;;;20.51;42.90;101688.25;5059729;28;20653;-67
2022/08/08 00:03:18;;;;;;;3.67;1.83;;;;;;;20.55;43.08;101697.56;5080262;28;20071;-67
2022/08/08 00:06:00;;;;;;;5.90;1.95;;;;;;;20.60;43.02;101694.50;5097944;28;20055;-65
2022/08/08 00:08:41;;;;;;;7.53;2.13;;;;;;;20.40;43.21;101695.53;5062914;28;20051;-68
2022/08/08 00:11:41;;;;;;;3.35;1.75;;;;;;;20.05;44.52;101692.44;5097582;28;20492;-66
2022/08/08 00:14:44;;;;;;;3.97;1.80;;;;;;;20.25;44.22;101696.28;5096246;28;20064;-68
2022/08/08 00:17:45;;;;;;;4.97;1.90;;;;;;;20.03;44.77;101686.41;5093311;28;20055;-67
2022/08/08 00:20:33;;;;;;;8.15;2.20;;;;;;;20.36;44.21;101687.03;5097438;28;20055;-63
2022/08/08 00:23:06;;;;;;;5.30;2.00;;;;;;;20.40;43.90;101689.94;5088234;28;20052;-64
2022/08/08 00:25:39;;;;;;;6.57;2.80;;;;;;;20.43;44.09;101689.22;5076173;28;20051;-66
2022/08/08 00:28:36;;;;;;;7.70;2.15;;;;;;;20.46;43.67;101680.09;5076206;28;20123;-68
2022/08/08 00:31:22;;;;;;;4.22;2.13;;;;;;;19.96;45.21;101684.19;5075971;28;20048;-66
2022/08/08 00:37:32;;;;;;;4.63;1.98;;;;;;;20.10;44.95;101681.84;5088251;28;20452;-66
2022/08/08 00:40:31;;;;;;;6.18;2.17;;;;;;;19.94;45.52;101692.16;5081251;28;20056;-62
2022/08/08 00:43:47;;;;;;;13.10;2.25;;;;;;;20.00;45.67;101687.09;5077442;28;20063;-67
2022/08/08 00:46:34;;;;;;;5.47;1.98;;;;;;;19.99;45.85;101685.50;5060240;28;20491;-62
2022/08/08 00:49:43;;;;;;;5.20;2.22;;;;;;;19.94;46.04;101678.16;5076875;28;20082;-66
2022/08/08 00:52:38;;;;;;;10.70;2.60;;;;;;;19.56;46.74;101677.75;5074127;28;20152;-65
2022/08/08 00:55:52;;;;;;;6.10;2.45;;;;;;;19.67;46.81;101661.31;5075538;28;20059;-62
2022/08/08 00:58:35;;;;;;;4.85;2.10;;;;;;;19.66;46.95;101674.50;5059284;28;20057;-62
2022/08/08 01:01:33;;;;;;;6.60;2.25;;;;;;;19.67;46.88;101672.50;5076713;28;20059;-62
2022/08/08 01:05:05;;;;;;;7.00;2.45;;;;;;;19.68;47.02;101680.53;5062542;28;20048;-66
2022/08/08 01:07:40;;;;;;;7.38;2.40;;;;;;;19.63;47.05;101668.78;5073959;28;20534;-66
2022/08/08 01:10:51;;;;;;;6.00;2.00;;;;;;;19.66;47.23;101671.69;5060358;28;20065;-63
2022/08/08 01:13:53;;;;;;;8.95;2.38;;;;;;;19.73;46.77;101666.34;5074112;28;20059;-61
2022/08/08 01:16:54;;;;;;;8.57;2.50;;;;;;;19.65;47.06;101661.66;5030553;28;20056;-63
2022/08/08 01:19:42;;;;;;;8.95;2.88;;;;;;;19.65;47.34;101672.06;5109438;28;20052;-63
2022/08/08 01:22:35;;;;;;;6.93;2.50;;;;;;;19.67;47.42;101667.72;5055359;28;20064;-63
2022/08/08 01:25:06;;;;;;;5.07;2.00;;;;;;;19.59;47.64;101659.47;5058027;28;20048;-66
2022/08/08 01:28:12;;;;;;;6.45;2.47;;;;;;;19.58;47.28;101655.84;5076216;28;20508;-67
2022/08/08 01:31:18;;;;;;;6.45;2.60;;;;;;;19.65;47.04;101663.66;5071279;28;20049;-64
2022/08/08 01:34:24;;;;;;;5.80;2.35;;;;;;;19.48;47.82;101664.72;5072037;28;20060;-62
2022/08/08 01:37:27;;;;;;;5.10;2.20;;;;;;;19.42;47.85;101656.94;5062803;28;20044;-63
2022/08/08 01:40:53;;;;;;;6.93;2.53;;;;;;;19.41;48.02;101658.91;5075880;28;20055;-63
2022/08/08 01:43:48;;;;;;;6.68;2.50;;;;;;;19.45;48.16;101661.81;5077317;28;20059;-62
2022/08/08 01:46:25;;;;;;;8.40;2.72;;;;;;;19.30;48.55;101670.88;5074235;28;20044;-62
2022/08/08 01:49:17;;;;;;;6.15;2.30;;;;;;;19.24;48.82;101661.91;5071078;28;20099;-62
2022/08/08 01:52:28;;;;;;;9.82;2.53;;;;;;;19.50;48.09;101664.34;5073121;28;20056;-62
2022/08/08 01:55:27;;;;;;;10.23;2.53;;;;;;;19.60;47.94;101658.28;5060802;28;20052;-63
2022/08/08 01:58:27;;;;;;;5.00;2.40;;;;;;;19.38;48.54;101664.38;5060982;28;20041;-66
2022/08/08 02:01:25;;;;;;;7.95;2.97;;;;;;;19.28;48.84;101668.44;5059434;28;20054;-67
2022/08/08 02:04:36;;;;;;;6.03;2.60;;;;;;;19.33;48.78;101659.03;5060245;28;20056;-62
2022/08/08 02:07:27;;;;;;;6.07;2.50;;;;;;;19.14;49.21;101661.53;5056512;28;20085;-63
2022/08/08 02:10:33;;;;;;;8.75;2.72;;;;;;;19.38;48.59;101668.00;5074220;28;20063;-66
2022/08/08 02:13:21;;;;;;;4.85;2.58;;;;;;;19.48;48.34;101663.88;5073940;28;20060;-66
2022/08/08 02:16:26;;;;;;;6.60;2.55;;;;;;;19.21;49.13;101665.41;5090154;28;20059;-68
2022/08/08 02:19:02;;;;;;;10.68;2.38;;;;;;;19.23;49.16;101662.25;5087537;28;20048;-64
2022/08/08 02:24:50;;;;;;;8.25;2.53;;;;;;;19.40;49.01;101660.06;5054867;28;20065;-61
2022/08/08 02:27:48;;;;;;;7.22;2.50;;;;;;;19.15;49.33;101661.19;5070737;28;20049;-65
2022/08/08 02:30:26;;;;;;;8.05;2.85;;;;;;;19.04;49.89;101666.41;5054586;28;20060;-62
2022/08/08 02:33:09;;;;;;;5.75;3.00;;;;;;;19.14;49.53;101664.34;5054139;28;20053;-62
2022/08/08 02:35:55;;;;;;;8.55;2.85;;;;;;;18.91;50.13;101662.00;5059583;28;20062;-66
2022/08/08 02:38:33;;;;;;;9.27;3.30;;;;;;;18.92;50.51;101671.16;5058295;28;20048;-67
2022/08/08 02:41:35;;;;;;;10.25;2.75;;;;;;;18.90;50.44;101663.13;5071230;28;20056;-66
2022/08/08 02:44:59;;;;;;;6.80;2.80;;;;;;;18.69;51.41;101670.75;5059727;28;20059;-65
2022/08/08 02:47:51;;;;;;;8.43;2.90;;;;;;;18.79;51.03;101667.53;5073553;28;20052;-66
2022/08/08 02:51:17;;;;;;;9.18;2.90;;;;;;;18.85;50.76;101666.16;5056947;28;20067;-62
2022/08/08 02:54:12;;;;;;;6.72;3.17;;;;;;;18.80;51.29;101663.59;5072493;28;20495;-62
2022/08/08 02:57:03;;;;;;;8.20;3.22;;;;;;;18.70;51.57;101666.00;5073394;28;20049;-63
2022/08/08 03:00:16;;;;;;;6.90;3.30;;;;;;;18.83;51.07;101668.47;5090332;28;20048;-66
2022/08/08 03:03:22;;;;;;;4.82;2.60;;;;;;;18.54;52.14;101653.84;5073212;28;20044;-63
2022/08/08 03:06:17;;;;;;;8.75;3.22;;;;;;;18.65;52.03;101655.06;5072777;28;20032;-66
2022/08/08 03:09:20;;;;;;;9.93;3.47;;;;;;;18.83;51.06;101664.84;5073709;28;20056;-66
2022/08/08 03:11:53;;;;;;;5.55;2.88;;;;;;;18.73;51.84;101662.50;5074520;28;20512;-66
2022/08/08 03:14:48;;;;;;;8.38;3.25;;;;;;;18.75;51.72;101668.56;5090139;28;20049;-66
2022/08/08 03:17:51;;;;;;;7.00;3.20;;;;;;;18.73;51.50;101666.13;5075649;28;20052;-66
2022/08/08 03:20:46;;;;;;;6.22;3.28;;;;;;;18.76;51.67;101670.19;5059961;28;20060;-66
2022/08/08 03:23:21;;;;;;;8.05;2.80;;;;;;;18.77;51.62;101674.63;5064817;28;20056;-66
2022/08/08 03:25:50;;;;;;;7.57;3.13;;;;;;;18.35;52.85;101682.25;5054425;28;20060;-63
2022/08/08 03:28:37;;;;;;;8.20;3.20;;;;;;;18.57;52.22;101675.50;5053288;28;20500;-63
2022/08/08 03:33:17;;;;;;;6.97;3.08;;;;;;;18.62;52.18;101675.31;5053319;28;20435;-63
2022/08/08 03:33:59;;;;;;;10.18;3.42;;;;;;;18.26;53.40;101677.88;5059680;28;20049;-67
2022/08/08 03:36:41;;;;;;;7.30;3.35;;;;;;;18.24;53.70;101674.63;5076715;28;20053;-67
2022/08/08 03:39:13;;;;;;;7.15;2.88;;;;;;;18.24;53.37;101671.84;5069995;28;20063;-67
2022/08/08 03:41:45;;;;;;;7.45;3.00;;;;;;;18.53;52.73;101683.72;5063816;28;20052;-67
2022/08/08 03:44:37;;;;;;;8.55;3.20;;;;;;;18.64;52.33;101686.91;5096311;28;20064;-67
2022/08/08 03:47:08;;;;;;;7.43;3.20;;;;;;;18.42;53.00;101678.94;5114116;28;20048;-63
2022/08/08 03:49:49;;;;;;;8.77;3.60;;;;;;;18.41;52.95;101686.47;5079873;28;20058;-63
2022/08/08 03:52:35;;;;;;;8.50;3.35;;;;;;;18.52;53.03;101682.13;5056281;28;20448;-62
2022/08/08 03:55:16;;;;;;;7.00;3.13;;;;;;;18.60;52.61;101684.00;5056554;28;20060;-63
2022/08/08 03:58:04;;;;;;;10.00;3.63;;;;;;;18.30;53.31;101688.03;5056270;28;20041;-67
2022/08/08 04:01:04;;;;;;;9.65;3.30;;;;;;;18.23;53.87;101686.94;5072627;28;20538;-65
2022/08/08 04:03:53;;;;;;;9.85;3.25;;;;;;;18.16;53.89;101695.88;5056551;28;20045;-62
2022/08/08 04:06:30;;;;;;;8.07;3.75;;;;;;;18.16;54.11;101689.47;5069887;28;20056;-67
2022/08/08 04:09:04;;;;;;;6.28;3.90;;;;;;;18.25;53.79;101687.44;5076408;28;20675;-67
2022/08/08 04:11:40;;;;;;;9.30;3.75;;;;;;;18.18;53.86;101689.94;5076360;28;20541;-64
2022/08/08 04:14:30;;;;;;;10.52;3.45;;;;;;;18.50;53.11;101690.00;5076523;28;20492;-63
2022/08/08 04:17:03;;;;;;;11.07;3.47;;;;;;;18.36;53.76;101691.44;5077261;28;20048;-63
2022/08/08 04:19:41;;;;;;;8.68;4.13;;;;;;;18.23;53.91;101696.16;5093428;28;20055;-66
2022/08/08 04:22:09;;;;;;;7.50;3.63;;;;;;;18.42;53.17;101702.06;5078729;28;20523;-65
2022/08/08 04:24:39;;;;;;;10.68;4.13;;;;;;;18.39;53.41;101705.53;5093185;28;20064;-66
2022/08/08 04:27:09;;;;;;;8.50;4.25;;;;;;;18.30;53.64;101702.00;5075834;28;20052;-65
2022/08/08 04:29:57;;;;;;;8.00;3.72;;;;;;;18.27;53.90;101699.84;5062193;28;20059;-66
2022/08/08 04:32:44;;;;;;;8.93;3.70;;;;;;;18.20;54.27;101701.59;5045453;28;20431;-63
2022/08/08 04:35:14;;;;;;;11.00;3.90;;;;;;;18.28;53.92;101709.06;5075377;28;20523;-63
2022/08/08 04:37:43;;;;;;;7.70;3.67;;;;;;;18.23;54.10;101700.91;5075638;28;20558;-62
2022/08/08 04:40:16;;;;;;;10.88;3.65;;;;;;;18.21;54.46;101704.03;5070411;28;20049;-65
2022/08/08 04:42:50;;;;;;;8.02;3.60;;;;;;;18.25;54.28;101696.63;5072420;28;20556;-66
2022/08/08 04:45:42;;;;;;;8.85;3.90;;;;;;;18.21;54.01;101703.22;5072319;28;20059;-62
2022/08/08 04:48:13;;;;;;;10.20;3.88;;;;;;;17.91;55.38;101706.06;5076189;28;20059;-63
2022/08/08 04:50:42;;;;;;;7.90;4.20;;;;;;;17.97;55.03;101706.69;5055548;28;20049;-63
2022/08/08 04:53:19;;;;;;;9.10;3.80;;;;;;;18.09;54.70;101709.53;5055326;28;20142;-62
2022/08/08 04:56:08;;;;;;;8.52;3.95;;;;;;;17.98;54.96;101706.34;5057478;28;20056;-62
2022/08/08 04:58:36;;;;;;;6.88;3.92;;;;;;;17.78;55.86;101703.53;5057985;28;20045;-62
2022/08/08 05:01:05;;;;;;;9.10;4.07;;;;;;;17.93;55.49;101711.28;5092161;28;20044;-66
2022/08/08 05:03:43;;;;;;;9.85;4.57;;;;;;;17.88;55.54;101717.91;5090851;28;20139;-65
2022/08/08 05:06:34;;;;;;;11.20;4.50;;;;;;;18.10;54.79;101722.31;5095236;28;20535;-63
2022/08/08 05:09:05;;;;;;;8.07;4.53;;;;;;;17.96;55.35;101725.38;5078323;28;20067;-63
2022/08/08 05:11:36;;;;;;;14.10;4.28;;;;;;;18.02;55.07;101719.59;5095534;28;20407;-63
2022/08/08 05:14:10;;;;;;;8.07;4.30;;;;;;;17.85;55.55;101723.34;5042314;28;20056;-62
2022/08/08 05:16:41;;;;;;;7.75;4.00;;;;;;;17.69;56.18;101720.31;5058732;28;21748;-66
2022/08/08 05:19:23;;;;;;;10.73;4.50;;;;;;;17.65;56.49;101724.09;5074745;28;20542;-66
2022/08/08 05:22:11;;;;;;;8.57;4.50;;;;;;;18.04;55.53;101731.22;5094972;28;20056;-66
2022/08/08 05:24:45;;;;;;;10.13;3.92;;;;;;;18.05;55.13;101730.88;5076605;28;20492;-67
2022/08/08 05:27:15;;;;;;;11.43;4.47;;;;;;;17.92;55.73;101732.78;5075063;28;20045;-66
2022/08/08 05:29:43;;;;;;;14.70;4.60;;;;;;;18.12;55.19;101731.16;5090835;28;20059;-63
2022/08/08 05:32:17;;;;;;;10.13;4.53;;;;;;;18.03;55.84;101729.63;5074167;28;20507;-63
2022/08/08 05:34:46;;;;;;;12.40;4.82;;;;;;;18.06;55.24;101740.06;5076166;28;20049;-64
2022/08/08 05:37:19;;;;;;;8.27;4.18;;;;;;;18.12;55.00;101736.75;5077407;28;20399;-62
2022/08/08 05:39:52;;;;;;;10.57;4.53;;;;;;;17.90;55.97;101740.66;5078288;28;20060;-65
2022/08/08 05:42:34;;;;;;;13.88;4.80;;;;;;;17.75;56.39;101743.22;5075523;28;20399;-66
2022/08/08 05:45:02;;;;;;;9.85;4.53;;;;;;;17.89;56.00;101741.81;5095456;28;20051;-63
2022/08/08 05:47:52;;;;;;;9.88;4.35;;;;;;;17.82;56.37;101749.06;5080796;28;20055;-65
2022/08/08 05:50:31;;;;;;;9.45;4.80;;;;;;;17.99;55.74;101752.56;5094808;28;20078;-66
2022/08/08 05:53:00;;;;;;;10.90;4.65;;;;;;;18.11;55.31;101751.03;5094222;28;20055;-62
2022/08/08 05:55:47;;;;;;;10.18;4.53;;;;;;;17.96;55.83;101758.81;5076517;28;20056;-67
2022/08/08 05:58:41;;;;;;;10.00;4.20;;;;;;;17.90;55.58;101754.59;5092048;28;20126;-65
2022/08/08 06:01:26;;;;;;;12.37;5.20;;;;;;;17.71;56.61;101767.34;5094547;28;20047;-62
2022/08/08 06:04:17;;;;;;;9.80;5.13;;;;;;;17.73;56.71;101760.28;5080379;28;20519;-63
2022/08/08 06:06:52;;;;;;;11.30;5.00;;;;;;;17.86;56.42;101758.41;5094062;28;20052;-60
2022/08/08 06:09:27;;;;;;;12.52;4.80;;;;;;;17.78;56.39;101762.88;5101115;28;20060;-60
2022/08/08 06:12:16;;;;;;;11.80;5.13;;;;;;;17.73;56.81;101759.47;5063277;28;20055;-60
2022/08/08 06:14:59;;;;;;;15.07;4.95;;;;;;;17.91;56.16;101763.78;5067293;28;20052;-60
2022/08/08 06:17:36;;;;;;;13.43;4.97;;;;;;;18.00;55.93;101764.53;5051340;28;20049;-60
2022/08/08 06:20:23;;;;;;;16.77;5.47;;;;;;;17.69;56.69;101764.91;5066416;28;20504;-60
2022/08/08 06:22:53;;;;;;;15.48;5.45;;;;;;;17.76;56.57;101776.34;5079905;28;20059;-61
2022/08/08 06:25:29;;;;;;;12.13;5.40;;;;;;;17.79;56.37;101769.25;5079642;28;20057;-60
2022/08/08 06:28:22;;;;;;;11.98;5.53;;;;;;;17.99;55.99;101774.88;5081224;28;20063;-60
2022/08/08 06:30:59;;;;;;;12.90;4.75;;;;;;;17.98;56.34;101789.97;5072377;28;20053;-60
2022/08/08 06:33:40;;;;;;;15.32;5.57;;;;;;;17.88;56.29;101776.44;5085726;28;20079;-61
2022/08/08 06:36:42;;;;;;;13.60;5.45;;;;;;;18.02;56.22;101781.75;5058351;28;20061;-61
2022/08/08 06:39:21;;;;;;;11.07;5.00;;;;;;;18.50;54.91;101786.84;5071599;28;20048;-61
2022/08/08 06:41:57;;;;;;;11.70;5.25;;;;;;;17.91;56.37;101786.06;5050397;28;20076;-61
2022/08/08 06:44:40;;;;;;;12.77;5.47;;;;;;;17.99;55.88;101790.81;5079550;28;20491;-63
2022/08/08 06:47:09;;;;;;;14.68;4.95;;;;;;;18.28;55.49;101782.41;5063123;28;20065;-60
2022/08/08 06:49:38;;;;;;;11.75;4.85;;;;;;;18.45;54.82;101781.47;5065249;28;20045;-61
2022/08/08 06:52:23;;;;;;;13.20;5.47;;;;;;;18.72;54.07;101784.53;5062653;28;20049;-61
2022/08/08 06:54:57;;;;;;;12.38;4.93;;;;;;;18.97;53.25;101788.22;5052857;28;20570;-63
2022/08/08 06:57:26;;;;;;;;;;;;;;;18.80;53.27;101775.25;5072965;28;20063;-63
2022/08/08 06:59:56;;;;;;;14.60;5.45;;;;;;;18.75;53.55;101785.81;5069874;28;19924;-63
2022/08/08 07:02:43;;;;;;;13.35;5.18;;;;;;;19.14;52.48;101784.44;5074993;28;20057;-63
2022/08/08 07:05:16;;;;;;;11.05;4.82;;;;;;;19.32;52.09;101786.72;5070994;28;20060;-62
2022/08/08 07:07:58;;;;;;;16.17;5.18;;;;;;;19.45;51.81;101793.16;5087048;28;20052;-62
2022/08/08 07:10:39;;;;;;;14.52;4.32;;;;;;;19.39;51.84;101795.34;5075267;28;20055;-63
2022/08/08 07:13:18;;;;;;;16.17;5.45;;;;;;;19.13;52.14;101794.78;5063588;28;20052;-62
2022/08/08 07:15:59;;;;;;;11.18;5.00;;;;;;;19.16;52.30;101801.66;5068387;28;20043;-63
2022/08/08 07:19:05;;;;;;;12.38;5.03;;;;;;;19.20;51.86;101805.38;5074373;28;20055;-63
2022/08/08 07:22:04;;;;;;;15.05;5.40;;;;;;;19.37;51.51;101808.03;5055749;28;20495;-64
2022/08/08 07:25:00;;;;;;;21.10;4.85;;;;;;;19.43;51.20;101807.47;5087510;28;20060;-63
2022/08/08 07:27:41;;;;;;;11.40;4.82;;;;;;;19.76;50.47;101813.78;5073947;28;20393;-64
2022/08/08 07:30:29;;;;;;;10.73;4.40;;;;;;;19.92;50.08;101813.91;5086956;28;20055;-62
2022/08/08 07:32:57;;;;;;;13.27;4.55;;;;;;;19.92;49.82;101811.13;5088649;28;20049;-62
2022/08/08 07:35:29;;;;;;;13.38;4.30;;;;;;;20.04;49.17;101817.53;5073889;28;20052;-62
2022/08/08 07:38:02;;;;;;;13.45;4.75;;;;;;;20.06;48.66;101819.97;5075169;28;20040;-62
2022/08/08 07:40:57;;;;;;;7.35;3.70;;;;;;;20.41;48.31;101815.53;5071847;28;20168;-63
2022/08/08 07:43:32;;;;;;;7.35;4.18;;;;;;;20.57;47.73;101810.00;5092078;28;20479;-63
2022/08/08 07:46:06;;;;;;;17.10;4.80;;;;;;;20.50;47.85;101813.41;5075058;28;20055;-62
2022/08/08 07:48:51;;;;;;;15.80;4.50;;;;;;;20.47;47.93;101816.09;5089004;28;20044;-63
2022/08/08 07:51:18;;;;;;;14.48;4.15;;;;;;;20.34;48.04;101814.47;5069102;28;20041;-63
2022/08/08 07:54:31;;;;;;;8.80;4.13;;;;;;;20.22;48.46;101817.31;5061364;28;20052;-62
2022/08/08 07:57:12;;;;;;;11.85;4.35;;;;;;;20.57;48.02;101813.63;5079408;28;20063;-63
2022/08/08 08:00:04;;;;;;;11.65;4.20;;;;;;;20.79;46.84;101818.69;5072260;28;20071;-63
2022/08/08 08:03:04;;;;;;;10.13;3.60;;;;;;;20.83;46.90;101810.38;5085916;28;20497;-62
2022/08/08 08:05:43;;;;;;;10.93;3.53;;;;;;;21.00;46.23;101810.94;5069434;28;20052;-63
2022/08/08 08:08:24;;;;;;;11.02;4.20;;;;;;;21.23;45.74;101808.34;5068147;28;20052;-63
2022/08/08 08:10:56;;;;;;;9.32;3.30;;;;;;;21.45;45.44;101810.53;5052362;28;20407;-63
2022/08/08 08:13:46;;;;;;;12.38;3.88;;;;;;;21.23;45.26;101811.94;5088439;28;20045;-61
2022/08/08 08:16:38;;;;;;;9.80;3.40;;;;;;;21.43;45.02;101814.91;5055916;28;20052;-63
2022/08/08 08:19:09;;;;;;;12.95;2.83;;;;;;;21.47;44.31;101824.19;5084073;28;20049;-63
2022/08/08 08:21:41;;;;;;;18.77;3.40;;;;;;;21.54;44.40;101810.38;5076023;28;20412;-63
2022/08/08 08:24:33;;;;;;;9.32;3.30;;;;;;;21.45;44.30;101818.13;5064199;28;20048;-62
2022/08/08 08:27:03;;;;;;;11.50;3.33;;;;;;;21.68;44.17;101813.53;5071927;28;20055;-62
2022/08/08 08:29:35;;;;;;;7.97;3.00;;;;;;;21.82;43.95;101819.53;5056227;28;20405;-62
2022/08/08 08:32:03;;;;;;;11.98;4.38;;;;;;;21.97;43.45;101811.09;5072184;28;20052;-63
2022/08/08 08:34:36;;;;;;;9.52;3.03;;;;;;;22.01;42.84;101814.00;5070268;28;20051;-62
2022/08/08 08:37:10;;;;;;;10.20;3.10;;;;;;;21.90;43.19;101815.72;5082277;28;20048;-62
2022/08/08 08:39:42;;;;;;;8.27;2.75;;;;;;;21.92;43.04;101811.38;5073362;28;20045;-63
2022/08/08 08:42:33;;;;;;;7.10;2.45;;;;;;;21.88;43.13;101806.88;5070801;28;20048;-62
2022/08/08 08:45:06;;;;;;;9.43;2.75;;;;;;;22.10;42.91;101832.28;5054562;28;20607;-63
2022/08/08 08:47:53;;;;;;;6.82;2.67;;;;;;;21.96;42.51;101819.91;5075254;28;20048;-62
2022/08/08 08:50:31;;;;;;;9.25;2.83;;;;;;;21.75;42.69;101824.94;5076272;28;20052;-62
2022/08/08 08:53:09;;;;;;;9.25;3.13;;;;;;;21.69;43.09;101815.19;5060259;28;20060;-62
2022/08/08 08:56:06;;;;;;;8.30;2.55;;;;;;;21.93;42.12;101815.81;5088501;28;20061;-62
2022/08/08 08:58:42;;;;;;;7.72;3.17;;;;;;;22.08;42.13;101812.19;5090480;28;20712;-62
2022/08/08 09:01:20;;;;;;;11.63;2.90;;;;;;;22.11;42.13;101817.06;5064790;28;20056;-63
2022/08/08 09:03:53;;;;;;;9.90;2.50;;;;;;;22.22;41.93;101820.94;5070909;28;20566;-62
2022/08/08 09:06:28;;;;;;;12.50;2.72;;;;;;;22.14;41.96;101821.94;5071874;28;20052;-63
2022/08/08 09:09:11;;;;;;;10.35;2.83;;;;;;;22.22;42.02;101809.72;5071925;28;20048;-63
2022/08/08 09:12:09;;;;;;;7.18;2.40;;;;;;;22.25;41.61;101803.38;5042877;28;20067;-64
2022/08/08 09:14:40;;;;;;;11.23;2.92;;;;;;;22.25;41.63;101802.53;5072087;28;20048;-64
2022/08/08 09:17:15;;;;;;;11.40;2.95;;;;;;;22.31;41.68;101807.53;5080974;28;20068;-64
2022/08/08 09:20:03;;;;;;;9.45;3.03;;;;;;;22.25;41.42;101808.97;5071167;28;20044;-64
2022/08/08 09:22:52;;;;;;;8.60;2.72;;;;;;;22.37;40.55;101810.03;5092329;28;20040;-62
2022/08/08 09:25:25;;;;;;;9.40;2.67;;;;;;;22.32;40.44;101806.34;5071055;28;20059;-63
2022/08/08 09:28:12;;;;;;;7.88;2.75;;;;;;;22.35;40.64;101783.13;5052928;28;20059;-66
2022/08/08 09:31:05;;;;;;;10.50;2.70;;;;;;;22.62;40.38;101791.75;5070892;28;20048;-66
2022/08/08 09:33:44;;;;;;;10.88;3.40;;;;;;;22.71;40.29;101804.41;5080489;28;20045;-66
2022/08/08 09:36:33;;;;;;;15.77;2.92;;;;;;;22.66;39.86;101793.47;5085935;28;20051;-64
2022/08/08 09:39:04;;;;;;;17.05;3.45;;;;;;;22.69;39.69;101798.34;5064978;28;20044;-66
2022/08/08 09:41:57;;;;;;;12.43;2.85;;;;;;;22.76;39.23;101784.44;5085472;28;20850;-64
2022/08/08 09:45:13;;;;;;;7.70;2.40;;;;;;;22.83;38.79;101797.81;5079555;28;20048;-66
2022/08/08 09:47:48;;;;;;;7.70;2.20;;;;;;;22.78;38.91;101792.50;5067576;28;20307;-70
2022/08/08 09:50:34;;;;;;;8.57;2.42;;;;;;;22.89;38.96;101788.72;5066623;28;20407;-66
2022/08/08 09:53:03;;;;;;;8.15;2.20;;;;;;;23.04;38.47;101781.41;5063654;28;20049;-66
2022/08/08 09:55:51;;;;;;;11.23;2.53;;;;;;;23.15;38.22;101793.66;5067309;28;20052;-68
2022/08/08 09:58:38;;;;;;;7.57;2.13;;;;;;;23.07;38.17;101783.44;5072905;28;20071;-66
2022/08/08 10:01:11;;;;;;;6.28;2.22;;;;;;;23.10;38.23;101782.72;5038669;28;20071;-66
2022/08/08 10:03:46;;;;;;;13.45;2.60;;;;;;;23.33;38.28;101778.78;5075400;28;20052;-68
2022/08/08 10:06:23;;;;;;;9.73;2.90;;;;;;;23.52;37.88;101771.47;5069900;28;20049;-67
2022/08/08 10:08:56;;;;;;;7.85;2.33;;;;;;;23.51;37.37;101783.91;5062589;28;20499;-66
2022/08/08 10:11:23;;;;;;;8.90;2.08;;;;;;;23.39;37.28;101776.47;5064609;28;20065;-68
2022/08/08 10:14:11;;;;;;;8.15;2.30;;;;;;;23.50;37.52;101774.66;5069111;28;20056;-67
2022/08/08 10:16:58;;;;;;;11.70;2.70;;;;;;;23.56;37.55;101767.53;5079183;28;20057;-65
2022/08/08 10:19:37;;;;;;;8.48;2.40;;;;;;;23.45;37.28;101782.59;5063893;28;20040;-64
2022/08/08 10:22:26;;;;;;;9.90;2.25;;;;;;;23.39;36.79;101770.84;5061543;28;20496;-64
2022/08/08 10:25:00;;;;;;;7.88;2.13;;;;;;;23.42;36.71;101764.47;5061211;28;20052;-64
2022/08/08 10:27:31;;;;;;;7.38;2.13;;;;;;;23.53;36.94;101770.28;5062541;28;20051;-65
2022/08/08 10:30:03;;;;;;;7.72;2.20;;;;;;;23.58;36.43;101767.97;5061970;28;20061;-66
2022/08/08 10:32:34;;;;;;;8.43;2.25;;;;;;;23.63;36.35;101759.19;5064427;28;20048;-64
2022/08/08 10:35:12;;;;;;;11.68;2.20;;;;;;;23.65;36.00;101753.19;5076497;28;20516;-67
2022/08/08 10:38:02;;;;;;;9.20;2.50;;;;;;;23.71;36.20;101754.53;5062400;28;20064;-65
2022/08/08 10:40:31;;;;;;;6.18;2.25;;;;;;;23.67;36.22;101753.63;5065086;28;20568;-65
2022/08/08 10:43:04;;;;;;;7.72;2.42;;;;;;;23.81;36.06;101760.31;5062065;28;20059;-65
2022/08/08 10:45:45;;;;;;;8.45;2.72;;;;;;;23.72;36.48;101756.94;5047966;28;20055;-67
2022/08/08 10:48:35;;;;;;;11.15;2.60;;;;;;;23.92;36.18;101750.00;5040886;28;20044;-67
2022/08/08 10:51:28;;;;;;;7.80;2.28;;;;;;;23.92;35.98;101755.66;5063617;28;20028;-66
2022/08/08 10:53:58;;;;;;;7.60;2.72;;;;;;;24.11;35.69;101746.31;5058767;28;20318;-67
2022/08/08 10:56:33;;;;;;;13.52;2.60;;;;;;;24.15;35.40;101747.16;5062155;28;20064;-68
2022/08/08 10:59:09;;;;;;;8.02;2.10;;;;;;;24.34;34.82;101747.03;5049100;28;20065;-67
2022/08/08 11:01:44;;;;;;;7.72;2.25;;;;;;;24.29;34.42;101748.19;5067381;28;20503;-67
2022/08/08 11:04:15;;;;;;;9.18;2.15;;;;;;;24.34;33.98;101744.22;5076422;28;20522;-66
2022/08/08 11:06:59;;;;;;;9.55;2.33;;;;;;;24.23;34.28;101748.91;5062913;28;20060;-67
2022/08/08 11:09:27;;;;;;;7.10;2.20;;;;;;;24.33;34.86;101737.78;5062693;28;20045;-67
2022/08/08 11:12:00;;;;;;;9.20;2.20;;;;;;;24.37;34.54;101744.25;5062921;28;20056;-67
2022/08/08 11:14:50;;;;;;;5.57;2.03;;;;;;;24.39;33.82;101747.50;5063780;28;20052;-68
2022/08/08 11:17:24;;;;;;;4.78;2.17;;;;;;;24.48;33.71;101745.22;5064293;28;20629;-67
2022/08/08 11:20:14;;;;;;;5.45;1.80;;;;;;;24.53;33.77;101739.25;5065994;28;20047;-67
2022/08/08 11:22:49;;;;;;;17.00;2.25;;;;;;;24.66;33.85;101748.25;5065667;28;20052;-68
2022/08/08 11:25:28;;;;;;;9.60;2.38;;;;;;;24.68;33.00;101736.59;5063151;28;20048;-67
2022/08/08 11:28:22;;;;;;;7.57;1.95;;;;;;;24.59;32.69;101730.44;5057199;28;21502;-68
2022/08/08 11:30:52;;;;;;;6.63;2.55;;;;;;;24.65;33.05;101731.75;5063268;28;20060;-67
2022/08/08 11:33:24;;;;;;;5.38;2.40;;;;;;;24.82;32.88;101737.63;5066277;28;20048;-68
2022/08/08 11:36:13;;;;;;;6.18;2.20;;;;;;;24.77;32.35;101737.16;5064228;28;20051;-68
2022/08/08 11:38:42;;;;;;;8.13;2.22;;;;;;;25.00;32.19;101738.59;5064816;28;20093;-68
2022/08/08 11:41:22;;;;;;;6.10;2.00;;;;;;;25.00;31.88;101727.34;5064828;28;20048;-68
2022/08/08 11:43:52;;;;;;;10.95;2.30;;;;;;;25.00;31.46;101729.38;5062720;28;20053;-68
2022/08/08 11:46:26;;;;;;;8.85;2.42;;;;;;;24.88;32.08;101726.81;5065148;28;20060;-68
2022/08/08 11:48:56;;;;;;;8.57;2.50;;;;;;;25.10;31.94;101718.19;5079054;28;20053;-68
2022/08/08 11:51:25;;;;;;;4.65;1.80;;;;;;;25.07;30.82;101718.16;5048400;28;20053;-68
2022/08/08 11:54:07;;;;;;;4.50;1.50;;;;;;;25.21;30.25;101709.84;5049379;28;20511;-68
2022/08/08 11:57:08;;;;;;;3.73;1.60;;;;;;;25.48;30.22;101714.13;5069887;28;20044;-68
2022/08/08 12:00:00;;;;;;;5.38;2.10;;;;;;;25.36;30.59;101711.56;5083764;28;20303;-68
2022/08/08 12:02:53;;;;;;;;;;;;;;;25.32;30.88;101716.38;5084148;28;20060;-68
2022/08/08 12:05:35;;;;;;;13.93;3.92;;;;;;;25.52;30.76;101712.16;5065276;28;20409;-67
2022/08/08 12:08:03;;;;;;;9.35;2.17;;;;;;;25.42;29.69;101699.56;5066532;28;20044;-67
2022/08/08 12:10:31;;;;;;;7.55;2.17;;;;;;;25.44;29.93;101704.81;5067376;28;20056;-68
2022/08/08 12:13:05;;;;;;;4.85;2.28;;;;;;;25.40;30.06;101701.19;5066148;28;20060;-68
2022/08/08 12:15:34;;;;;;;8.60;1.98;;;;;;;25.42;29.79;101693.09;5065933;28;20052;-67
2022/08/08 12:18:18;;;;;;;9.60;1.70;;;;;;;25.36;30.29;101692.69;5066519;28;20515;-68
2022/08/08 12:20:49;;;;;;;7.90;1.75;;;;;;;25.52;29.70;101692.41;5066753;28;20053;-67
2022/08/08 12:23:30;;;;;;;7.35;1.50;;;;;;;25.59;29.01;101696.06;5068951;28;20040;-69
2022/08/08 12:26:20;;;;;;;5.10;1.50;;;;;;;25.81;28.58;101691.41;5075572;28;20079;-66
2022/08/08 12:29:25;;;;;;;5.30;1.50;;;;;;;25.87;27.71;101684.19;5073751;28;20053;-64
2022/08/08 12:32:13;;;;;;;5.78;1.88;;;;;;;26.08;28.00;101675.84;5074258;28;20049;-66
2022/08/08 12:34:55;;;;;;;7.35;2.35;;;;;;;25.94;28.62;101672.94;5069753;28;20049;-67
2022/08/08 12:37:34;;;;;;;7.80;2.10;;;;;;;25.99;28.39;101674.56;5074129;28;20087;-68
2022/08/08 12:40:14;;;;;;;7.60;2.30;;;;;;;26.05;27.88;101667.34;5068288;28;20045;-64
2022/08/08 12:42:49;;;;;;;6.95;2.15;;;;;;;26.06;27.65;101675.44;5071574;28;20040;-64